Time;durP1;ratioP1;P1;durP2;ratioP2;P2;SDS_P1;SDS_P2;PMS_P1;PMS_P2;Temp;Humidity;BMP_temperature;BMP_pressure;BME280_temperature;BME280_humidity;BME280_pressure;Samples;Min_cycle;Max_cycle;Signal;HPM_P1;HPM_P2
2022/05/20 00:01:17;;;;;;;5.87;4.33;;;24.50;91.00;;;;;;4965505;28;20939;-71
2022/05/20 00:03:44;;;;;;;7.27;4.20;;;24.50;91.00;;;;;;4939646;29;20854;-71
2022/05/20 00:06:13;;;;;;;4.00;3.70;;;24.40;91.00;;;;;;4957186;28;20426;-71
2022/05/20 00:08:42;;;;;;;4.30;3.90;;;24.40;90.90;;;;;;4954389;28;20983;-75
2022/05/20 00:11:10;;;;;;;5.50;4.57;;;24.40;91.00;;;;;;4964184;28;20411;-75
2022/05/20 00:13:36;;;;;;;4.73;4.33;;;24.40;91.00;;;;;;4939916;29;20541;-75
2022/05/20 00:16:02;;;;;;;7.27;4.43;;;24.40;91.00;;;;;;4934345;29;20525;-75
2022/05/20 00:18:29;;;;;;;5.10;4.17;;;24.40;91.00;;;;;;4957007;29;20458;-74
2022/05/20 00:21:00;;;;;;;4.90;4.50;;;24.30;90.90;;;;;;4924941;29;20426;-75
2022/05/20 00:23:27;;;;;;;4.30;3.90;;;24.30;91.00;;;;;;4939953;29;20470;-74
2022/05/20 00:25:55;;;;;;;4.53;3.80;;;24.30;91.00;;;;;;4953101;28;20421;-74
2022/05/20 00:28:26;;;;;;;5.97;4.30;;;24.30;91.00;;;;;;4974899;28;20774;-75
2022/05/20 00:31:01;;;;;;;4.87;4.47;;;24.20;90.90;;;;;;4975434;28;20950;-74
2022/05/20 00:33:30;;;;;;;5.00;4.17;;;24.20;90.90;;;;;;4958464;28;20512;-75
2022/05/20 00:35:56;;;;;;;4.37;4.00;;;24.20;90.90;;;;;;4975697;28;20433;-75
2022/05/20 00:38:22;;;;;;;5.03;4.53;;;24.20;90.90;;;;;;4957204;28;20817;-75
2022/05/20 00:40:53;;;;;;;6.07;4.07;;;24.20;90.90;;;;;;4946473;29;20450;-75
2022/05/20 00:43:40;;;;;;;5.00;4.50;;;24.20;90.90;;;;;;4939603;29;20940;-75
2022/05/20 00:46:09;;;;;;;5.10;4.70;;;24.10;90.80;;;;;;4956519;29;20838;-74
2022/05/20 00:48:37;;;;;;;5.13;4.63;;;24.10;90.80;;;;;;4934499;29;20466;-72
2022/05/20 00:51:14;;;;;;;5.03;4.30;;;24.10;90.90;;;;;;4956622;28;20462;-73
2022/05/20 00:53:52;;;;;;;5.67;4.70;;;24.10;90.90;;;;;;4956066;29;20595;-73
2022/05/20 00:56:29;;;;;;;5.20;4.63;;;24.10;90.90;;;;;;4954493;28;20407;-73
2022/05/20 00:58:58;;;;;;;6.10;4.60;;;24.10;90.90;;;;;;4975468;28;20816;-72
2022/05/20 01:01:26;;;;;;;4.93;4.23;;;24.00;90.80;;;;;;4957947;28;20426;-73
2022/05/20 01:03:56;;;;;;;5.10;4.37;;;24.00;90.80;;;;;;4973754;28;20486;-73
2022/05/20 01:06:25;;;;;;;4.20;3.80;;;24.00;90.80;;;;;;4975334;28;20418;-73
2022/05/20 01:08:51;;;;;;;4.97;4.20;;;24.00;90.80;;;;;;4941468;28;20442;-73
2022/05/20 01:11:20;;;;;;;4.60;4.20;;;23.90;90.80;;;;;;4937121;29;20428;-73
2022/05/20 01:13:49;;;;;;;5.53;4.60;;;23.90;90.80;;;;;;4938821;29;20427;-73
2022/05/20 01:16:17;;;;;;;5.80;4.70;;;23.90;90.80;;;;;;4974896;28;20460;-73
2022/05/20 01:18:46;;;;;;;6.60;5.30;;;23.90;90.80;;;;;;4957388;28;20483;-73
2022/05/20 01:21:16;;;;;;;4.90;4.50;;;23.90;90.80;;;;;;4972408;28;20472;-73
2022/05/20 01:23:44;;;;;;;4.10;3.70;;;23.80;90.80;;;;;;4974569;28;20399;-72
2022/05/20 01:26:13;;;;;;;5.87;4.30;;;23.90;90.80;;;;;;4954476;28;20433;-73
2022/05/20 01:28:44;;;;;;;5.40;4.80;;;23.80;90.80;;;;;;4947018;28;20972;-73
2022/05/20 01:31:14;;;;;;;4.50;4.10;;;23.80;90.80;;;;;;4954327;28;20429;-73
2022/05/20 01:33:52;;;;;;;9.97;4.67;;;23.80;90.80;;;;;;4956850;28;20473;-71
2022/05/20 01:36:21;;;;;;;5.10;4.10;;;23.80;90.80;;;;;;4941122;28;20472;-73
2022/05/20 01:38:52;;;;;;;4.60;4.20;;;23.80;90.80;;;;;;4946323;29;20450;-72
2022/05/20 01:41:48;;;;;;;4.47;4.07;;;23.70;90.80;;;;;;4967221;28;20479;-72
2022/05/20 01:44:32;;;;;;;5.57;3.97;;;23.70;90.80;;;;;;4954151;29;20497;-73
2022/05/20 01:47:26;;;;;;;6.97;3.73;;;23.70;90.80;;;;;;4954673;28;20775;-73
2022/05/20 01:49:55;;;;;;;4.80;4.40;;;23.70;90.80;;;;;;4924142;29;20509;-72
2022/05/20 01:52:27;;;;;;;4.03;3.30;;;23.70;90.90;;;;;;4923951;29;20964;-73
2022/05/20 01:54:58;;;;;;;4.47;4.10;;;23.70;90.90;;;;;;4938055;29;20457;-73
2022/05/20 01:57:43;;;;;;;4.50;4.10;;;23.70;90.90;;;;;;4956597;28;20427;-72
2022/05/20 02:00:22;;;;;;;6.60;4.43;;;23.60;90.90;;;;;;4948518;28;20541;-73
2022/05/20 02:03:06;;;;;;;4.30;3.53;;;23.60;90.90;;;;;;4972893;28;20525;-72
2022/05/20 02:05:35;;;;;;;4.20;3.80;;;23.60;91.00;;;;;;4973474;28;20427;-72
2022/05/20 02:08:10;;;;;;;4.40;4.00;;;23.60;91.00;;;;;;4957552;28;20409;-73
2022/05/20 02:10:45;;;;;;;4.10;3.70;;;23.60;91.00;;;;;;4972262;28;20536;-72
2022/05/20 02:13:17;;;;;;;5.10;4.03;;;23.50;90.90;;;;;;4940341;28;20516;-73
2022/05/20 02:15:49;;;;;;;4.27;3.87;;;23.50;90.90;;;;;;4973186;28;20430;-72
2022/05/20 02:18:26;;;;;;;4.10;3.43;;;23.50;91.00;;;;;;4956200;28;20441;-73
2022/05/20 02:20:59;;;;;;;4.87;4.27;;;23.50;91.00;;;;;;4958050;28;20453;-72
2022/05/20 02:23:31;;;;;;;5.73;4.30;;;23.50;91.00;;;;;;4936462;29;20454;-73
2022/05/20 02:26:09;;;;;;;4.20;3.80;;;23.50;91.00;;;;;;4937749;29;20788;-72
2022/05/20 02:28:42;;;;;;;3.80;3.50;;;23.40;91.00;;;;;;4921369;29;20534;-73
2022/05/20 02:31:19;;;;;;;3.60;3.30;;;23.40;91.00;;;;;;4939754;28;20434;-73
2022/05/20 02:33:45;;;;;;;4.20;3.67;;;23.40;91.00;;;;;;4929400;29;20426;-72
2022/05/20 02:36:22;;;;;;;4.63;4.10;;;23.40;91.00;;;;;;4921457;28;20456;-73
2022/05/20 02:38:51;;;;;;;4.70;3.90;;;23.40;91.10;;;;;;4954750;28;20494;-72
2022/05/20 02:41:17;;;;;;;4.60;4.20;;;23.40;91.10;;;;;;4937144;29;20430;-73
2022/05/20 02:43:43;;;;;;;4.00;3.70;;;23.40;91.10;;;;;;4937003;29;20447;-72
2022/05/20 02:46:15;;;;;;;4.00;3.70;;;23.40;91.10;;;;;;4951765;29;20425;-73
2022/05/20 02:48:41;;;;;;;4.67;3.87;;;23.30;91.00;;;;;;4921090;29;20430;-73
2022/05/20 02:51:07;;;;;;;4.20;3.80;;;23.30;91.00;;;;;;4971503;28;20512;-73
2022/05/20 02:53:33;;;;;;;3.80;3.50;;;23.30;91.00;;;;;;4936059;29;20517;-72
2022/05/20 02:56:00;;;;;;;3.93;3.60;;;23.30;91.10;;;;;;4953960;29;20500;-73
2022/05/20 03:04:10;;;;;;;5.07;3.30;;;23.20;91.00;;;;;;4955676;28;20458;-72
2022/05/20 03:06:52;;;;;;;4.03;3.73;;;23.20;91.00;;;;;;4956255;28;20501;-72
2022/05/20 03:09:26;;;;;;;3.97;3.67;;;23.20;91.00;;;;;;4933416;28;20549;-73
2022/05/20 03:11:54;;;;;;;4.10;3.70;;;23.10;91.00;;;;;;4939450;29;20430;-73
2022/05/20 03:14:22;;;;;;;4.80;4.37;;;23.20;91.00;;;;;;4949927;28;20425;-73
2022/05/20 03:16:50;;;;;;;4.23;3.80;;;23.10;91.00;;;;;;4961682;28;20529;-73
2022/05/20 03:19:20;;;;;;;7.33;4.40;;;23.10;91.00;;;;;;4936609;29;20442;-73
2022/05/20 03:21:49;;;;;;;5.23;4.10;;;23.10;91.00;;;;;;4943180;28;20450;-72
2022/05/20 03:24:16;;;;;;;4.80;4.13;;;23.10;91.00;;;;;;4955832;28;20461;-72
2022/05/20 03:26:43;;;;;;;4.30;4.00;;;23.10;91.00;;;;;;4966877;28;20478;-71
2022/05/20 03:29:09;;;;;;;3.60;3.30;;;23.10;91.00;;;;;;4936385;29;20470;-73
2022/05/20 03:31:40;;;;;;;4.27;3.87;;;23.10;91.00;;;;;;4964715;28;20422;-72
2022/05/20 03:34:10;;;;;;;5.03;4.10;;;23.00;90.90;;;;;;4955915;28;20452;-73
2022/05/20 03:36:45;;;;;;;6.03;4.20;;;23.00;91.00;;;;;;4944867;29;20462;-73
2022/05/20 03:39:13;;;;;;;4.70;4.30;;;23.00;91.00;;;;;;4939282;28;20454;-73
2022/05/20 03:41:40;;;;;;;5.33;4.17;;;23.00;91.00;;;;;;4955436;28;20407;-73
2022/05/20 03:44:11;;;;;;;6.27;3.60;;;23.00;91.00;;;;;;4968471;28;20480;-73
2022/05/20 03:46:41;;;;;;;4.10;3.70;;;23.00;91.00;;;;;;4930860;29;20462;-73
2022/05/20 03:49:10;;;;;;;4.93;3.63;;;23.00;91.00;;;;;;4940009;29;20542;-73
2022/05/20 03:51:41;;;;;;;3.77;3.40;;;22.90;91.00;;;;;;4936709;29;20478;-73
2022/05/20 03:54:09;;;;;;;7.47;4.07;;;22.90;91.00;;;;;;4959278;28;20422;-73
2022/05/20 03:56:35;;;;;;;3.50;3.20;;;22.90;91.00;;;;;;4935897;29;20439;-73
2022/05/20 03:59:01;;;;;;;3.70;3.40;;;22.90;91.00;;;;;;4926588;28;20838;-72
2022/05/20 04:04:14;;;;;;;3.30;3.10;;;22.90;91.00;;;;;;4935982;29;20439;-73
2022/05/20 04:06:39;;;;;;;4.00;3.60;;;22.90;91.00;;;;;;4966302;28;20419;-72
2022/05/20 04:09:05;;;;;;;5.07;3.53;;;22.90;91.00;;;;;;4953357;29;20473;-70
2022/05/20 04:11:32;;;;;;;3.20;3.00;;;22.80;91.00;;;;;;4937104;28;20298;-70
2022/05/20 04:14:01;;;;;;;4.90;3.20;;;22.80;91.00;;;;;;4971426;28;20399;-70
2022/05/20 04:16:27;;;;;;;3.63;3.33;;;22.80;91.00;;;;;;4952312;28;20956;-70
2022/05/20 04:18:55;;;;;;;3.80;3.20;;;22.80;91.00;;;;;;4967764;28;20446;-71
2022/05/20 04:21:21;;;;;;;3.33;3.03;;;22.80;91.10;;;;;;4948549;28;20434;-71
2022/05/20 04:23:52;;;;;;;3.23;2.93;;;22.80;91.10;;;;;;4939192;28;20437;-71
2022/05/20 04:26:19;;;;;;;3.53;3.23;;;22.80;91.00;;;;;;4923001;29;20449;-71
2022/05/20 04:28:47;;;;;;;3.50;3.20;;;22.70;91.00;;;;;;4956763;28;20457;-71
2022/05/20 04:31:16;;;;;;;4.20;3.43;;;22.70;91.00;;;;;;4942299;29;20423;-71
2022/05/20 04:33:42;;;;;;;3.33;3.03;;;22.70;91.00;;;;;;4938238;28;20775;-71
2022/05/20 04:36:08;;;;;;;3.83;3.43;;;22.70;91.00;;;;;;4939250;28;20527;-71
2022/05/20 04:38:37;;;;;;;3.03;2.77;;;22.70;91.10;;;;;;4971918;28;20539;-71
2022/05/20 04:49:23;;;;;;;4.13;3.40;;;22.60;91.00;;;;;;4976031;28;20851;-71
2022/05/20 04:51:49;;;;;;;4.27;3.87;;;22.60;91.10;;;;;;4921067;29;20524;-70
2022/05/20 04:57:02;;;;;;;3.50;3.20;;;22.60;91.10;;;;;;4957132;28;20542;-69
2022/05/20 04:59:28;;;;;;;7.10;4.03;;;22.50;91.10;;;;;;4956700;29;20450;-70
2022/05/20 05:01:54;;;;;;;5.13;4.60;;;22.50;91.10;;;;;;4957596;28;21027;-70
2022/05/20 05:04:23;;;;;;;4.33;3.93;;;22.50;91.10;;;;;;4956621;29;20439;-70
2022/05/20 05:06:49;;;;;;;5.70;4.57;;;22.50;91.10;;;;;;4967561;28;20434;-70
2022/05/20 05:09:20;;;;;;;4.47;4.03;;;22.50;91.10;;;;;;4958537;28;20536;-70
2022/05/20 05:11:47;;;;;;;4.90;4.03;;;22.50;91.20;;;;;;4942412;28;20491;-70
2022/05/20 05:14:19;;;;;;;4.40;3.73;;;22.50;91.20;;;;;;4958513;28;20422;-70
2022/05/20 05:16:45;;;;;;;4.83;4.43;;;22.50;91.20;;;;;;4974932;28;20505;-70
2022/05/20 05:19:13;;;;;;;4.30;3.90;;;22.50;91.20;;;;;;4953783;29;20458;-70
2022/05/20 05:21:46;;;;;;;4.23;3.83;;;22.50;91.20;;;;;;4950377;28;20429;-70
2022/05/20 05:24:12;;;;;;;5.17;4.77;;;22.40;91.20;;;;;;4971654;28;20423;-69
2022/05/20 05:26:42;;;;;;;4.77;4.27;;;22.40;91.20;;;;;;4939324;29;20502;-73
2022/05/20 05:29:08;;;;;;;4.50;4.10;;;22.40;91.20;;;;;;4965829;28;20523;-74
2022/05/20 05:31:34;;;;;;;6.77;4.63;;;22.40;91.20;;;;;;4937759;29;20416;-74
2022/05/20 05:34:03;;;;;;;4.50;4.10;;;22.40;91.20;;;;;;4926915;28;20455;-69
2022/05/20 05:36:29;;;;;;;5.87;4.90;;;22.40;91.20;;;;;;4971616;28;20764;-69
2022/05/20 05:38:57;;;;;;;5.17;4.67;;;22.40;91.30;;;;;;4952000;28;20453;-69
2022/05/20 05:41:28;;;;;;;5.27;4.47;;;22.40;91.30;;;;;;4962991;28;20177;-69
2022/05/20 05:44:01;;;;;;;4.63;4.23;;;22.40;91.30;;;;;;4959352;28;20938;-70
2022/05/20 05:46:27;;;;;;;4.40;4.00;;;22.40;91.30;;;;;;4943012;29;20482;-70
2022/05/20 05:48:57;;;;;;;6.40;5.10;;;22.30;91.20;;;;;;4953249;28;20557;-71
2022/05/20 05:51:25;;;;;;;5.30;4.80;;;22.30;91.20;;;;;;4938465;29;20481;-71
2022/05/20 05:53:59;;;;;;;5.60;4.67;;;22.30;91.30;;;;;;4955518;29;20431;-71
2022/05/20 05:56:25;;;;;;;4.90;4.50;;;22.30;91.30;;;;;;4958020;28;20486;-71
2022/05/20 05:58:55;;;;;;;5.30;4.80;;;22.30;91.30;;;;;;4961090;28;21007;-70
2022/05/20 06:01:22;;;;;;;8.00;4.53;;;22.30;91.30;;;;;;4957355;28;20437;-70
2022/05/20 06:03:52;;;;;;;5.30;4.80;;;22.30;91.30;;;;;;4962220;28;20529;-71
2022/05/20 06:06:19;;;;;;;6.67;4.90;;;22.30;91.30;;;;;;4938617;29;20447;-71
2022/05/20 06:08:47;;;;;;;5.70;5.00;;;22.30;91.40;;;;;;4955673;29;20431;-72
2022/05/20 06:11:13;;;;;;;6.00;5.40;;;22.30;91.40;;;;;;4938837;29;20420;-70
2022/05/20 06:13:41;;;;;;;5.23;4.73;;;22.30;91.40;;;;;;4938827;29;20414;-71
2022/05/20 06:16:07;;;;;;;5.73;4.90;;;22.20;91.30;;;;;;4941852;28;20457;-71
2022/05/20 06:18:36;;;;;;;6.70;5.27;;;22.20;91.30;;;;;;4958069;28;20398;-72
2022/05/20 06:21:04;;;;;;;5.43;4.70;;;22.20;91.40;;;;;;4955764;28;20443;-71
2022/05/20 06:23:30;;;;;;;8.00;6.10;;;22.20;91.40;;;;;;4938480;29;20965;-72
2022/05/20 06:26:01;;;;;;;5.10;4.40;;;22.20;91.40;;;;;;4955275;29;20827;-72
2022/05/20 06:28:30;;;;;;;5.27;4.87;;;22.20;91.50;;;;;;4939185;28;20412;-72
2022/05/20 06:30:57;;;;;;;4.60;4.20;;;22.20;91.40;;;;;;4949938;28;21140;-72
2022/05/20 06:33:24;;;;;;;5.70;5.27;;;22.20;91.40;;;;;;4972404;28;20448;-70
2022/05/20 06:41:23;;;;;;;4.90;4.40;;;22.20;91.30;;;;;;4963908;28;20442;-72
2022/05/20 06:43:51;;;;;;;5.07;4.43;;;22.20;91.30;;;;;;4965089;28;20476;-72
2022/05/20 06:46:18;;;;;;;4.53;4.13;;;22.20;91.30;;;;;;4968909;28;20817;-73
2022/05/20 06:48:50;;;;;;;4.20;3.80;;;22.20;91.30;;;;;;4984443;28;20436;-73
2022/05/20 06:51:22;;;;;;;5.90;4.20;;;22.20;91.30;;;;;;4978271;28;20417;-74
2022/05/20 06:53:52;;;;;;;4.33;3.93;;;22.20;91.30;;;;;;4958097;28;20897;-76
2022/05/20 06:56:19;;;;;;;4.00;3.70;;;22.20;91.20;;;;;;4939884;28;20807;-76
2022/05/20 06:58:45;;;;;;;4.40;3.87;;;22.20;91.60;;;;;;4951813;28;20519;-75
2022/05/20 07:01:12;;;;;;;4.40;4.00;;;22.20;91.20;;;;;;4955616;28;20848;-75
2022/05/20 07:03:40;;;;;;;5.10;4.00;;;22.20;91.20;;;;;;4991822;28;20828;-75
2022/05/20 07:06:11;;;;;;;4.80;4.17;;;22.20;91.20;;;;;;4974073;28;20977;-75
2022/05/20 07:08:37;;;;;;;4.40;3.80;;;22.20;91.10;;;;;;4957189;28;20487;-75
2022/05/20 07:11:04;;;;;;;5.27;3.97;;;22.20;91.10;;;;;;4951232;28;20433;-75
2022/05/20 07:13:31;;;;;;;4.20;3.90;;;22.20;91.10;;;;;;4966626;28;20902;-75
2022/05/20 07:16:05;;;;;;;4.30;3.90;;;22.20;91.10;;;;;;4946542;28;20959;-75
2022/05/20 07:18:34;;;;;;;5.27;4.13;;;22.20;91.10;;;;;;4987927;28;20491;-75
2022/05/20 07:21:01;;;;;;;4.20;3.80;;;22.20;91.00;;;;;;4960020;28;20433;-75
2022/05/20 07:23:31;;;;;;;5.10;3.80;;;22.20;91.00;;;;;;4956803;28;20468;-75
2022/05/20 07:26:00;;;;;;;5.40;4.20;;;22.20;91.00;;;;;;4966154;28;20443;-75
2022/05/20 07:28:30;;;;;;;5.23;3.67;;;22.20;91.00;;;;;;4960262;28;20490;-75
2022/05/20 07:30:56;;;;;;;4.60;4.10;;;22.20;91.00;;;;;;4966177;28;20457;-76
2022/05/20 07:33:28;;;;;;;4.77;3.73;;;22.20;90.90;;;;;;4983162;28;20477;-76
2022/05/20 07:35:56;;;;;;;5.77;4.67;;;22.20;90.90;;;;;;4972013;28;20452;-76
2022/05/20 07:38:22;;;;;;;5.23;4.00;;;22.20;90.90;;;;;;4984543;28;20817;-76
2022/05/20 07:40:54;;;;;;;4.77;4.33;;;22.20;90.90;;;;;;4985251;28;20432;-76
2022/05/20 07:43:26;;;;;;;5.77;5.00;;;22.20;90.90;;;;;;4984879;28;20533;-76
2022/05/20 07:45:53;;;;;;;4.97;4.30;;;22.30;91.00;;;;;;4940223;28;20417;-76
2022/05/20 07:48:20;;;;;;;5.27;4.10;;;22.30;91.00;;;;;;4972668;28;20416;-76
2022/05/20 07:50:51;;;;;;;8.57;4.77;;;22.30;91.00;;;;;;4954741;28;20929;-76
2022/05/20 07:53:23;;;;;;;5.10;4.53;;;22.30;91.00;;;;;;4963844;28;20433;-76
2022/05/20 07:56:01;;;;;;;6.70;4.83;;;22.30;91.00;;;;;;4964731;28;20448;-76
2022/05/20 07:58:31;;;;;;;6.10;5.03;;;22.30;91.00;;;;;;4964211;28;20759;-76
2022/05/20 08:00:59;;;;;;;5.20;4.70;;;22.30;91.10;;;;;;4973066;28;20461;-75
2022/05/20 08:06:17;;;;;;;6.77;5.67;;;22.30;91.10;;;;;;4905308;28;20438;-74
2022/05/20 08:08:44;;;;;;;7.30;5.37;;;22.40;91.20;;;;;;4965447;28;20468;-75
2022/05/20 08:11:10;;;;;;;6.17;5.17;;;22.40;91.20;;;;;;4933047;28;20488;-77
2022/05/20 08:13:37;;;;;;;5.63;5.13;;;22.40;91.20;;;;;;4978457;28;20739;-73
2022/05/20 08:16:05;;;;;;;6.20;4.73;;;22.40;91.20;;;;;;4956112;28;20468;-75
2022/05/20 08:18:33;;;;;;;6.87;6.13;;;22.50;91.30;;;;;;4959497;28;20504;-74
2022/05/20 08:21:02;;;;;;;7.03;5.10;;;22.50;91.40;;;;;;4988998;28;20443;-73
2022/05/20 08:23:30;;;;;;;6.53;5.60;;;22.50;91.40;;;;;;4975655;28;20449;-76
2022/05/20 08:25:56;;;;;;;7.47;5.07;;;22.50;91.40;;;;;;4969278;28;21630;-76
2022/05/20 08:28:25;;;;;;;6.93;5.37;;;22.50;91.50;;;;;;4959598;28;20437;-73
2022/05/20 08:30:55;;;;;;;5.97;5.20;;;22.60;91.50;;;;;;4933294;28;20425;-74
2022/05/20 08:33:26;;;;;;;5.90;5.07;;;22.60;91.50;;;;;;4993690;28;20452;-77
2022/05/20 08:35:53;;;;;;;7.10;5.40;;;22.60;91.50;;;;;;4993591;28;20446;-77
2022/05/20 08:38:21;;;;;;;7.50;5.30;;;22.60;91.50;;;;;;4970763;28;20460;-77
2022/05/20 08:40:49;;;;;;;5.87;4.37;;;22.60;91.50;;;;;;4955202;28;20443;-75
2022/05/20 08:43:26;;;;;;;7.33;5.47;;;22.60;91.60;;;;;;4967006;28;20509;-78
2022/05/20 08:45:52;;;;;;;7.37;5.20;;;22.70;91.70;;;;;;4991583;28;20506;-78
2022/05/20 08:48:21;;;;;;;6.37;5.63;;;22.70;91.70;;;;;;4959489;28;20528;-78
2022/05/20 08:50:55;;;;;;;7.23;5.23;;;22.70;91.70;;;;;;4988561;28;20436;-81
2022/05/20 08:53:29;;;;;;;6.93;6.00;;;22.70;91.70;;;;;;4952598;28;20435;-79
2022/05/20 08:56:07;;;;;;;7.87;5.80;;;22.80;91.70;;;;;;4979971;28;20453;-79
2022/05/20 08:58:36;;;;;;;6.70;5.50;;;22.70;91.70;;;;;;4978689;28;20863;-78
2022/05/20 09:01:02;;;;;;;5.50;5.00;;;22.80;91.70;;;;;;4996969;28;20556;-78
2022/05/20 09:03:34;;;;;;;6.40;5.30;;;22.80;91.70;;;;;;4991803;28;20476;-77
2022/05/20 09:06:14;;;;;;;6.60;5.60;;;22.80;91.70;;;;;;4971788;28;20417;-78
2022/05/20 09:08:42;;;;;;;6.33;5.73;;;22.80;91.70;;;;;;4968551;28;20884;-77
2022/05/20 09:11:14;;;;;;;9.23;5.83;;;22.90;91.70;;;;;;4943415;28;20454;-80
2022/05/20 09:16:30;;;;;;;6.07;5.47;;;22.90;91.80;;;;;;4995726;28;20417;-76
2022/05/20 09:19:10;;;;;;;6.30;5.70;;;22.90;91.70;;;;;;4934019;28;20520;-74
2022/05/20 09:22:01;;;;;;;7.80;5.70;;;22.90;91.70;;;;;;4963371;28;20444;-73
2022/05/20 09:24:46;;;;;;;6.40;5.80;;;22.90;91.70;;;;;;4975234;28;20449;-70
2022/05/20 09:27:18;;;;;;;8.30;6.40;;;23.00;91.80;;;;;;4967694;28;20934;-71
2022/05/20 09:30:05;;;;;;;6.30;5.70;;;23.00;91.80;;;;;;4959826;28;20499;-71
2022/05/20 09:32:43;;;;;;;6.97;6.27;;;23.00;91.80;;;;;;4980028;28;20436;-69
2022/05/20 09:35:17;;;;;;;8.07;7.23;;;23.00;91.80;;;;;;4984729;28;20455;-70
2022/05/20 09:37:46;;;;;;;6.90;6.20;;;23.00;91.80;;;;;;4958556;28;20457;-70
2022/05/20 09:40:47;;;;;;;11.33;6.30;;;23.10;91.90;;;;;;4984580;28;20985;-69
2022/05/20 09:43:37;;;;;;;8.73;7.00;;;23.10;91.90;;;;;;4971707;28;20979;-72
2022/05/20 09:46:09;;;;;;;9.80;6.10;;;23.10;91.90;;;;;;4987342;28;20431;-69
2022/05/20 09:48:55;;;;;;;7.20;6.50;;;23.10;91.90;;;;;;4948920;28;20436;-74
2022/05/20 09:51:27;;;;;;;9.10;6.83;;;23.10;91.90;;;;;;4980148;28;20483;-74
2022/05/20 09:54:09;;;;;;;7.20;6.50;;;23.20;92.10;;;;;;4958886;28;20465;-74
2022/05/20 09:56:45;;;;;;;7.97;6.87;;;23.20;92.10;;;;;;4941496;28;20433;-74
2022/05/20 09:59:21;;;;;;;9.80;7.10;;;23.20;92.20;;;;;;4977261;28;20457;-75
2022/05/20 10:02:04;;;;;;;8.60;7.50;;;23.30;92.30;;;;;;4966427;28;21050;-74
2022/05/20 10:04:55;;;;;;;8.63;6.67;;;23.20;92.20;;;;;;4954132;28;20430;-74
2022/05/20 10:07:55;;;;;;;11.33;7.23;;;23.30;92.30;;;;;;4980263;28;20790;-74
2022/05/20 10:10:35;;;;;;;8.20;7.27;;;23.30;92.30;;;;;;4948316;28;20466;-74
2022/05/20 10:13:05;;;;;;;8.30;6.90;;;23.30;92.40;;;;;;4991624;28;20433;-74
2022/05/20 10:15:40;;;;;;;8.20;7.40;;;23.40;92.50;;;;;;4985110;28;20990;-74
2022/05/20 10:18:30;;;;;;;8.30;7.30;;;23.40;92.60;;;;;;4971198;28;20820;-74
2022/05/20 10:21:34;;;;;;;13.10;7.10;;;23.40;92.60;;;;;;4960978;28;20951;-74
2022/05/20 10:24:23;;;;;;;7.83;7.10;;;23.50;92.70;;;;;;4984556;28;20454;-74
2022/05/20 10:26:58;;;;;;;10.87;8.20;;;23.50;92.70;;;;;;4964069;28;20442;-76
2022/05/20 10:32:36;;;;;;;11.00;8.03;;;23.50;92.70;;;;;;4960566;28;20480;-74
2022/05/20 10:35:16;;;;;;;10.00;7.93;;;23.60;92.80;;;;;;4959312;28;20458;-76
2022/05/20 10:38:27;;;;;;;8.87;7.97;;;23.60;92.80;;;;;;4985526;28;20455;-74
2022/05/20 10:41:01;;;;;;;8.40;7.47;;;23.70;92.80;;;;;;4953254;28;20451;-75
2022/05/20 10:50:24;;;;;;;10.97;8.60;;;23.70;92.90;;;;;;4974033;28;20462;-75
2022/05/20 10:53:02;;;;;;;10.90;9.00;;;23.80;93.00;;;;;;4971761;28;20835;-74
2022/05/20 10:55:47;;;;;;;11.53;9.37;;;23.80;93.10;;;;;;4942704;28;20544;-75
2022/05/20 10:58:31;;;;;;;9.93;9.03;;;23.80;93.10;;;;;;4949715;28;20470;-75
2022/05/20 11:01:01;;;;;;;13.80;10.13;;;23.90;93.20;;;;;;4986382;28;20507;-73
2022/05/20 11:03:52;;;;;;;10.67;9.57;;;23.90;93.40;;;;;;4981976;28;20461;-74
2022/05/20 11:06:50;;;;;;;12.47;11.20;;;23.90;93.50;;;;;;4981681;28;20421;-75
2022/05/20 11:09:23;;;;;;;11.60;10.40;;;24.00;93.70;;;;;;4929508;28;20496;-73
2022/05/20 11:12:02;;;;;;;11.37;9.93;;;24.10;93.80;;;;;;4990092;28;20456;-76
2022/05/20 11:14:49;;;;;;;12.47;9.13;;;24.10;93.80;;;;;;4989723;28;20456;-76
2022/05/20 11:17:37;;;;;;;11.43;9.30;;;24.10;93.90;;;;;;4959158;28;20461;-76
2022/05/20 11:20:22;;;;;;;12.03;9.87;;;24.10;93.90;;;;;;4973843;28;20445;-76
2022/05/20 11:23:11;;;;;;;10.60;8.97;;;24.20;94.00;;;;;;4966574;28;20464;-75
2022/05/20 11:25:37;;;;;;;20.90;10.20;;;24.20;94.00;;;;;;4951580;28;20439;-76
2022/05/20 11:28:06;;;;;;;10.50;9.10;;;24.30;94.00;;;;;;4958008;28;20416;-76
2022/05/20 11:30:47;;;;;;;15.20;10.47;;;24.30;94.10;;;;;;4977391;28;20213;-73
2022/05/20 11:33:39;;;;;;;10.77;9.67;;;24.40;94.10;;;;;;4946806;28;20461;-75
2022/05/20 11:36:15;;;;;;;9.43;8.60;;;24.40;94.10;;;;;;4958681;28;20855;-76
2022/05/20 11:38:56;;;;;;;12.40;9.60;;;24.40;94.10;;;;;;4979766;28;20456;-75
2022/05/20 11:41:42;;;;;;;10.67;9.47;;;24.50;94.10;;;;;;4966811;28;20423;-73
2022/05/20 11:44:32;;;;;;;10.60;9.60;;;24.50;94.00;;;;;;4971879;28;20436;-73
2022/05/20 11:47:52;;;;;;;8.90;8.10;;;24.50;94.00;;;;;;4967775;28;20838;-73
2022/05/20 11:50:52;;;;;;;10.77;9.60;;;24.60;94.10;;;;;;4907655;29;20547;-73
2022/05/20 11:53:42;;;;;;;11.97;10.73;;;24.60;94.10;;;;;;4959200;28;21020;-72
2022/05/20 11:56:30;;;;;;;11.47;9.60;;;24.70;94.20;;;;;;4978415;28;20966;-72
2022/05/20 11:59:03;;;;;;;10.83;9.87;;;24.70;94.00;;;;;;4970062;28;20441;-71
2022/05/20 12:01:31;;;;;;;10.07;9.17;;;24.70;94.10;;;;;;4982869;28;20425;-71
2022/05/20 12:04:08;;;;;;;10.80;9.70;;;24.80;94.10;;;;;;4984785;28;20453;-71
2022/05/20 12:07:08;;;;;;;9.60;8.70;;;24.80;94.10;;;;;;4972468;28;20444;-71
2022/05/20 12:09:36;;;;;;;8.70;8.00;;;24.90;94.20;;;;;;4959570;28;20777;-71
2022/05/20 12:12:08;;;;;;;11.93;9.37;;;24.90;94.10;;;;;;4994903;28;20549;-71
2022/05/20 12:15:11;;;;;;;9.10;8.27;;;24.90;94.00;;;;;;4961290;28;20513;-71
2022/05/20 12:17:43;;;;;;;9.70;8.80;;;25.00;94.00;;;;;;4957475;28;20457;-74
2022/05/20 12:26:05;;;;;;;9.80;8.83;;;25.10;93.80;;;;;;4969247;28;20439;-72
2022/05/20 12:28:37;;;;;;;8.23;7.53;;;25.10;93.80;;;;;;4955156;28;20429;-73
2022/05/20 12:31:06;;;;;;;9.90;9.00;;;25.10;93.70;;;;;;4968473;28;20457;-74
2022/05/20 12:34:10;;;;;;;9.80;8.90;;;25.10;93.70;;;;;;4993134;28;20796;-73
2022/05/20 12:36:43;;;;;;;9.37;8.57;;;25.10;93.70;;;;;;4930775;28;20445;-72
2022/05/20 12:39:09;;;;;;;8.63;7.93;;;25.20;93.70;;;;;;4950217;28;20978;-75
2022/05/20 12:41:53;;;;;;;9.33;7.53;;;25.20;93.70;;;;;;4969841;28;20476;-71
2022/05/20 12:44:21;;;;;;;9.50;8.70;;;25.20;93.70;;;;;;4977762;28;20491;-73
2022/05/20 12:47:13;;;;;;;8.37;7.67;;;25.20;93.70;;;;;;4994204;28;20463;-72
2022/05/20 12:49:49;;;;;;;8.53;7.63;;;25.20;93.70;;;;;;4969823;28;20449;-72
2022/05/20 12:52:24;;;;;;;8.43;7.70;;;25.20;93.60;;;;;;4990760;28;20426;-70
2022/05/20 12:55:15;;;;;;;8.80;7.83;;;25.20;93.60;;;;;;4971427;28;20974;-71
2022/05/20 12:57:54;;;;;;;8.77;7.97;;;25.20;93.50;;;;;;4936557;28;20447;-72
2022/05/20 13:00:54;;;;;;;9.30;8.50;;;25.30;93.50;;;;;;4967389;28;20501;-72
2022/05/20 13:03:41;;;;;;;8.13;7.30;;;25.30;93.50;;;;;;4931858;28;20485;-72
2022/05/20 13:06:27;;;;;;;7.80;7.20;;;25.30;93.50;;;;;;4946793;28;21006;-72
2022/05/20 13:09:06;;;;;;;8.20;7.50;;;25.30;93.50;;;;;;4959011;28;20491;-72
2022/05/20 13:11:41;;;;;;;8.17;7.40;;;25.30;93.50;;;;;;4978711;28;20429;-72
2022/05/20 13:14:12;;;;;;;8.27;7.47;;;25.30;93.60;;;;;;4960112;28;20421;-72
2022/05/20 13:16:47;;;;;;;8.33;7.30;;;25.30;93.60;;;;;;4960830;28;20453;-72
2022/05/20 13:19:15;;;;;;;7.97;7.17;;;25.30;93.70;;;;;;4943505;28;20460;-72
2022/05/20 13:21:56;;;;;;;7.40;6.80;;;25.30;93.90;;;;;;4957094;28;20434;-71
2022/05/20 13:24:27;;;;;;;7.87;7.13;;;25.30;94.00;;;;;;4977436;28;21025;-72
2022/05/20 13:27:06;;;;;;;10.77;7.50;;;25.30;94.20;;;;;;4990468;28;20429;-72
2022/05/20 13:29:35;;;;;;;9.00;7.47;;;25.30;94.70;;;;;;4940957;28;20453;-72
2022/05/20 13:32:29;;;;;;;8.43;6.93;;;25.30;94.90;;;;;;4955836;28;20968;-72
2022/05/20 13:35:00;;;;;;;7.63;6.93;;;25.30;95.00;;;;;;4947296;28;20450;-72
2022/05/20 13:37:38;;;;;;;7.30;6.70;;;25.30;95.00;;;;;;4955522;28;20468;-72
2022/05/20 13:40:36;;;;;;;7.53;6.73;;;25.20;95.00;;;;;;4962767;28;20449;-72
2022/05/20 13:43:04;;;;;;;7.03;6.33;;;25.20;95.10;;;;;;4951968;28;20500;-72
2022/05/20 13:51:26;;;;;;;6.67;5.97;;;25.20;95.00;;;;;;4964681;28;20829;-72
2022/05/20 13:53:55;;;;;;;5.97;5.37;;;25.20;94.90;;;;;;4958242;28;20428;-72
2022/05/20 13:56:30;;;;;;;7.60;6.17;;;25.20;94.80;;;;;;4978674;28;20428;-72
2022/05/20 13:59:25;;;;;;;6.73;6.07;;;25.20;94.80;;;;;;4978681;28;20955;-72
2022/05/20 14:01:54;;;;;;;8.87;6.30;;;25.20;94.70;;;;;;4967362;28;20475;-72
2022/05/20 14:04:43;;;;;;;6.20;5.60;;;25.20;94.60;;;;;;4969884;28;20477;-72
2022/05/20 14:07:36;;;;;;;6.17;5.63;;;25.20;94.60;;;;;;4952139;28;20437;-72
2022/05/20 14:10:32;;;;;;;5.80;5.20;;;25.30;94.70;;;;;;4960728;28;20437;-72